Time;durP1;ratioP1;P1;durP2;ratioP2;P2;SDS_P1;SDS_P2;PMS_P1;PMS_P2;Temp;Humidity;BMP_temperature;BMP_pressure;BME280_temperature;BME280_humidity;BME280_pressure;Samples;Min_cycle;Max_cycle;Signal;HPM_P1;HPM_P2
2022/01/08 00:00:16;;;;;;;22.15;9.77;;;;;;;1.56;44.19;99976.22;5029243;28;20038;-75
2022/01/08 00:02:44;;;;;;;18.95;9.95;;;;;;;1.55;44.29;99969.34;5029946;28;20060;-76
2022/01/08 00:05:12;;;;;;;15.70;8.93;;;;;;;1.54;44.07;99970.25;5029566;28;20049;-75
2022/01/08 00:07:39;;;;;;;21.88;9.55;;;;;;;1.52;44.13;99966.84;5029482;28;20076;-72
2022/01/08 00:10:07;;;;;;;17.17;8.80;;;;;;;1.52;44.41;99972.06;5029185;28;20650;-74
2022/01/08 00:12:34;;;;;;;23.38;11.15;;;;;;;1.48;44.23;99960.94;5029767;28;20045;-76
2022/01/08 00:15:01;;;;;;;12.68;8.00;;;;;;;1.47;44.36;99963.59;5031061;28;20050;-73
2022/01/08 00:17:32;;;;;;;20.05;9.23;;;;;;;1.43;44.25;99962.03;5029025;28;20506;-78
2022/01/08 00:19:59;;;;;;;19.73;8.65;;;;;;;1.39;44.16;99957.81;5013421;28;20406;-74
2022/01/08 00:22:35;;;;;;;25.90;9.35;;;;;;;1.37;44.32;99951.84;5032214;28;20049;-75
2022/01/08 00:25:03;;;;;;;18.13;7.82;;;;;;;1.33;44.46;99951.97;5031856;28;20124;-74
2022/01/08 00:27:30;;;;;;;15.75;8.65;;;;;;;1.31;44.48;99948.59;5041351;28;20085;-76
2022/01/08 00:29:57;;;;;;;19.45;10.10;;;;;;;1.26;44.23;99942.72;5029311;28;20626;-75
2022/01/08 00:32:25;;;;;;;23.60;7.68;;;;;;;1.24;44.08;99941.94;5027636;28;20137;-74
2022/01/08 00:34:53;;;;;;;23.75;10.40;;;;;;;1.22;44.33;99938.53;5028510;28;20080;-73
2022/01/08 00:37:20;;;;;;;22.20;9.40;;;;;;;1.19;44.50;99932.59;5030396;28;20056;-74
2022/01/08 00:39:48;;;;;;;16.70;7.97;;;;;;;1.18;44.38;99944.75;5028030;28;20046;-75
2022/01/08 00:42:15;;;;;;;24.98;9.88;;;;;;;1.18;44.46;99938.72;5029769;28;20670;-75
2022/01/08 00:44:42;;;;;;;14.48;7.30;;;;;;;1.16;44.27;99941.38;5028658;28;20103;-74
2022/01/08 00:47:09;;;;;;;17.30;8.52;;;;;;;1.11;44.46;99931.13;5027786;28;20141;-73
2022/01/08 00:49:37;;;;;;;23.52;9.68;;;;;;;1.10;44.09;99920.81;5011032;28;20053;-73
2022/01/08 00:52:06;;;;;;;16.05;9.10;;;;;;;1.07;44.31;99920.94;5028627;28;20437;-73
2022/01/08 00:54:35;;;;;;;21.25;8.10;;;;;;;1.06;44.43;99929.63;5028403;28;20049;-74
2022/01/08 00:57:03;;;;;;;17.65;7.20;;;;;;;1.00;44.31;99919.47;5027848;28;20060;-74
2022/01/08 00:59:30;;;;;;;16.40;8.43;;;;;;;1.00;44.57;99925.50;5028685;28;20063;-74
2022/01/08 01:01:57;;;;;;;23.02;9.60;;;;;;;0.96;44.25;99918.72;5027134;28;20521;-75
2022/01/08 01:04:24;;;;;;;16.45;8.15;;;;;;;0.94;44.68;99916.19;5028076;28;20504;-72
2022/01/08 01:06:51;;;;;;;24.38;10.95;;;;;;;0.95;44.35;99917.91;5027325;28;20045;-73
2022/01/08 01:09:20;;;;;;;18.67;7.97;;;;;;;0.92;44.47;99909.38;5028019;28;20044;-75
2022/01/08 01:11:47;;;;;;;23.33;10.23;;;;;;;0.90;44.54;99903.34;5032698;28;20046;-74
2022/01/08 01:14:13;;;;;;;22.50;10.23;;;;;;;0.86;44.75;99909.59;5028382;28;20046;-75
2022/01/08 01:16:41;;;;;;;17.95;7.88;;;;;;;0.85;44.70;99903.53;5028377;28;20056;-72
2022/01/08 01:19:08;;;;;;;18.73;8.02;;;;;;;0.85;44.81;99898.34;5028873;28;20132;-72
2022/01/08 01:21:34;;;;;;;19.95;8.90;;;;;;;0.86;44.65;99893.97;5028664;28;20546;-73
2022/01/08 01:24:08;;;;;;;23.92;8.52;;;;;;;0.82;44.80;99893.25;5027584;28;20532;-73
2022/01/08 01:26:45;;;;;;;22.90;8.40;;;;;;;0.82;44.55;99898.44;5025796;28;20045;-72
2022/01/08 01:29:29;;;;;;;19.85;9.32;;;;;;;0.81;44.88;99893.31;5025866;28;20055;-74
2022/01/08 01:43:27;;;;;;;24.63;10.18;;;;;;;0.70;45.11;99880.72;4890258;29;20044;-74
2022/01/08 01:48:39;;;;;;;15.02;7.80;;;;;;;0.65;45.30;99874.84;4889684;29;20115;-74
2022/01/08 01:51:06;;;;;;;22.52;8.63;;;;;;;0.62;45.36;99868.00;4888753;29;20090;-73
2022/01/08 01:53:35;;;;;;;19.48;8.48;;;;;;;0.62;45.08;99872.38;4888457;29;20056;-74
2022/01/08 01:56:05;;;;;;;26.95;11.98;;;;;;;0.61;45.65;99873.25;4887158;29;20053;-75
2022/01/08 01:58:37;;;;;;;13.48;7.70;;;;;;;0.61;45.47;99871.50;4889141;29;20051;-74
2022/01/08 02:01:05;;;;;;;11.45;5.30;;;;;;;0.59;45.25;99869.88;4874198;29;20187;-75
2022/01/08 02:03:32;;;;;;;20.10;8.27;;;;;;;0.55;45.32;99864.78;4888967;29;20128;-73
2022/01/08 02:06:02;;;;;;;23.33;10.07;;;;;;;0.54;45.34;99865.72;4873847;29;20053;-72
2022/01/08 02:08:30;;;;;;;23.42;9.93;;;;;;;0.53;45.39;99869.19;4892140;29;20437;-74
2022/01/08 02:10:58;;;;;;;25.38;10.07;;;;;;;0.49;45.75;99865.03;4899221;29;20049;-74
2022/01/08 02:13:26;;;;;;;23.48;11.00;;;;;;;0.48;45.62;99865.94;4964522;28;20052;-73
2022/01/08 02:15:59;;;;;;;29.55;11.15;;;;;;;0.47;45.75;99864.25;5028207;28;20132;-73
2022/01/08 02:18:27;;;;;;;18.33;9.00;;;;;;;0.46;45.71;99864.31;5028472;28;20048;-72
2022/01/08 02:20:56;;;;;;;18.95;8.95;;;;;;;0.43;45.88;99860.03;5027744;28;20129;-73
2022/01/08 02:23:24;;;;;;;25.60;10.18;;;;;;;0.40;45.58;99855.00;5026650;28;20050;-72
2022/01/08 02:25:51;;;;;;;20.02;8.63;;;;;;;0.39;45.69;99855.88;5024583;28;20046;-73
2022/01/08 02:28:18;;;;;;;23.73;9.57;;;;;;;0.35;46.07;99851.72;5026033;28;20545;-74
2022/01/08 02:30:45;;;;;;;23.17;9.32;;;;;;;0.34;45.90;99860.38;5026889;28;20060;-74
2022/01/08 02:33:13;;;;;;;20.15;9.55;;;;;;;0.34;45.76;99860.38;5026314;28;20136;-74
2022/01/08 02:35:39;;;;;;;23.33;9.10;;;;;;;0.31;45.80;99857.94;5027868;28;20607;-72
2022/01/08 02:38:08;;;;;;;21.30;9.13;;;;;;;0.28;46.11;99861.47;5030829;28;20049;-73
2022/01/08 02:40:36;;;;;;;19.70;8.55;;;;;;;0.26;45.88;99852.06;5030398;28;20042;-73
2022/01/08 02:43:04;;;;;;;19.60;8.50;;;;;;;0.25;45.81;99855.53;5031105;28;20743;-72
2022/01/08 02:45:32;;;;;;;19.27;9.30;;;;;;;0.22;46.20;99851.31;5032141;28;20052;-73
2022/01/08 02:47:59;;;;;;;19.80;8.40;;;;;;;0.20;45.98;99850.53;5031362;28;20051;-73
2022/01/08 02:50:26;;;;;;;19.45;9.82;;;;;;;0.18;46.37;99840.19;5031632;28;20050;-74
2022/01/08 02:52:53;;;;;;;21.05;9.88;;;;;;;0.16;46.13;99842.00;5030993;28;20047;-73
2022/01/08 02:55:22;;;;;;;20.33;9.15;;;;;;;0.17;46.40;99841.06;5029845;28;20071;-73
2022/01/08 02:57:49;;;;;;;23.20;9.88;;;;;;;0.14;46.37;99848.97;5031324;28;20061;-73
2022/01/08 03:00:19;;;;;;;20.00;9.18;;;;;;;0.14;46.29;99845.53;5030301;28;20498;-73
2022/01/08 03:02:48;;;;;;;31.88;10.85;;;;;;;0.12;46.37;99848.19;5030056;28;20249;-73
2022/01/08 03:05:15;;;;;;;16.23;9.18;;;;;;;0.11;46.79;99843.03;5029756;28;20053;-74
2022/01/08 03:07:44;;;;;;;21.05;8.63;;;;;;;0.08;46.70;99841.41;4978782;28;20068;-72
2022/01/08 03:10:13;;;;;;;16.05;8.02;;;;;;;0.08;46.53;99844.00;5030081;28;20041;-73
2022/01/08 03:12:44;;;;;;;17.55;8.75;;;;;;;0.11;46.72;99845.63;5029157;28;20138;-73
2022/01/08 03:15:13;;;;;;;18.25;7.22;;;;;;;0.10;46.60;99836.16;5030653;28;20081;-72
2022/01/08 03:17:40;;;;;;;24.88;8.90;;;;;;;0.08;46.49;99832.78;5029528;28;20045;-73
2022/01/08 03:20:13;;;;;;;18.23;8.90;;;;;;;0.06;46.86;99832.84;5030517;28;20148;-73
2022/01/08 03:22:41;;;;;;;16.80;8.45;;;;;;;0.05;46.64;99817.31;5029287;28;20124;-73
2022/01/08 03:25:10;;;;;;;17.92;9.27;;;;;;;0.05;46.72;99822.50;5029777;28;20141;-73
2022/01/08 03:27:37;;;;;;;23.85;8.85;;;;;;;0.03;46.87;99814.75;4994235;28;20052;-73
2022/01/08 03:30:07;;;;;;;20.95;8.27;;;;;;;0.03;46.99;99819.94;5030090;28;20125;-72
2022/01/08 03:32:34;;;;;;;23.30;10.63;;;;;;;-0.01;47.12;99813.19;5031586;28;20052;-75
2022/01/08 03:35:02;;;;;;;11.30;6.47;;;;;;;-0.02;47.17;99801.97;5031083;28;20109;-72
2022/01/08 03:37:29;;;;;;;22.67;10.05;;;;;;;-0.04;46.89;99802.91;5030737;28;20037;-73
2022/01/08 03:39:56;;;;;;;20.67;9.40;;;;;;;-0.07;46.96;99803.03;5030129;28;20076;-74
2022/01/08 03:42:23;;;;;;;24.17;9.52;;;;;;;-0.07;47.23;99800.44;5030586;28;20041;-72
2022/01/08 03:44:50;;;;;;;16.38;9.00;;;;;;;-0.07;47.08;99800.44;5030057;28;20747;-73
2022/01/08 03:47:41;;;;;;;22.05;8.57;;;;;;;-0.09;47.34;99803.09;5029748;28;20514;-74
2022/01/08 03:50:09;;;;;;;19.58;9.02;;;;;;;-0.09;47.10;99804.81;5027237;28;20050;-73
2022/01/08 03:52:36;;;;;;;20.00;9.00;;;;;;;-0.12;47.45;99799.75;5028471;28;20054;-73
2022/01/08 03:55:04;;;;;;;14.63;7.53;;;;;;;-0.14;47.19;99794.63;5032078;28;20072;-73
2022/01/08 03:57:31;;;;;;;20.75;9.60;;;;;;;-0.15;47.21;99792.91;5031429;28;20060;-73
2022/01/08 03:59:58;;;;;;;22.20;9.85;;;;;;;-0.16;47.48;99790.34;5027706;28;20136;-73
2022/01/08 04:02:26;;;;;;;23.42;9.05;;;;;;;-0.17;47.60;99793.88;5033787;28;20041;-72
2022/01/08 04:04:53;;;;;;;21.38;8.82;;;;;;;-0.20;47.55;99798.28;5036336;28;20042;-74
2022/01/08 04:07:20;;;;;;;23.20;10.68;;;;;;;-0.21;47.36;99799.16;5031450;28;20068;-73
2022/01/08 04:09:47;;;;;;;22.67;9.15;;;;;;;-0.21;47.29;99799.16;5027725;28;20047;-73
2022/01/08 04:12:20;;;;;;;20.50;8.68;;;;;;;-0.22;47.27;99801.81;5028200;28;20052;-74
2022/01/08 04:14:54;;;;;;;21.75;9.82;;;;;;;-0.23;47.42;99802.72;5030178;28;20119;-73
2022/01/08 04:17:21;;;;;;;24.05;9.48;;;;;;;-0.26;47.66;99798.47;5027404;28;20073;-72
2022/01/08 04:19:49;;;;;;;22.67;10.43;;;;;;;-0.27;47.53;99790.75;5028983;28;20148;-73
2022/01/08 04:22:16;;;;;;;19.60;8.73;;;;;;;-0.27;47.48;99788.16;5030125;28;20498;-74
2022/01/08 04:24:43;;;;;;;21.67;10.32;;;;;;;-0.27;47.79;99782.94;5029062;28;20045;-76
2022/01/08 04:27:10;;;;;;;19.52;8.38;;;;;;;-0.30;47.35;99781.31;5028853;28;20055;-72
2022/01/08 04:29:38;;;;;;;24.15;9.68;;;;;;;-0.30;47.69;99777.91;5032128;28;20076;-72
2022/01/08 04:32:05;;;;;;;21.05;8.85;;;;;;;-0.32;47.59;99780.53;5030190;28;20052;-73
2022/01/08 04:34:32;;;;;;;26.25;10.77;;;;;;;-0.32;47.84;99784.88;5028346;28;20132;-73
2022/01/08 04:37:00;;;;;;;20.70;10.68;;;;;;;-0.33;47.67;99780.59;5029978;28;20164;-74
2022/01/08 04:39:27;;;;;;;19.25;10.18;;;;;;;-0.35;47.85;99788.41;5029506;28;20113;-73
2022/01/08 04:41:55;;;;;;;23.67;11.13;;;;;;;-0.36;47.96;99786.75;5028968;28;20080;-73
2022/01/08 04:44:22;;;;;;;23.55;10.05;;;;;;;-0.39;47.64;99786.84;5029644;28;20087;-74
2022/01/08 04:46:49;;;;;;;16.40;9.02;;;;;;;-0.36;47.63;99785.88;5029395;28;20516;-73
2022/01/08 04:49:16;;;;;;;24.00;10.85;;;;;;;-0.36;47.96;99786.75;5031325;28;20065;-73
2022/01/08 04:51:43;;;;;;;20.95;11.50;;;;;;;-0.37;47.89;99792.81;5032403;28;20052;-73
2022/01/08 04:54:11;;;;;;;21.85;11.38;;;;;;;-0.39;47.81;99779.91;5032615;28;20140;-73
2022/01/08 04:56:38;;;;;;;23.48;10.07;;;;;;;-0.38;48.10;99783.34;5030607;28;20543;-73
2022/01/08 04:59:05;;;;;;;28.13;9.85;;;;;;;-0.38;47.86;99780.75;5032599;28;20216;-72
2022/01/08 05:01:32;;;;;;;23.67;11.30;;;;;;;-0.40;47.81;99770.44;5031205;28;20406;-74
2022/01/08 05:04:00;;;;;;;20.48;9.65;;;;;;;-0.40;48.06;99774.75;5027896;28;20053;-74
2022/01/08 05:06:27;;;;;;;23.92;9.88;;;;;;;-0.42;47.69;99768.78;5028468;28;20524;-72
2022/01/08 05:08:53;;;;;;;31.08;10.95;;;;;;;-0.44;47.94;99770.59;5027466;28;20056;-73
2022/01/08 05:11:22;;;;;;;27.90;9.70;;;;;;;-0.45;48.11;99768.88;5028389;28;20129;-73
2022/01/08 05:13:50;;;;;;;21.77;11.23;;;;;;;-0.48;47.90;99762.06;5029266;28;20038;-72
2022/01/08 05:16:17;;;;;;;23.55;9.82;;;;;;;-0.48;48.15;99762.06;5027078;28;20041;-73
2022/01/08 05:18:44;;;;;;;17.17;9.48;;;;;;;-0.49;48.21;99764.72;5027995;28;20053;-73
2022/01/08 05:21:19;;;;;;;21.30;10.55;;;;;;;-0.50;48.18;99766.47;5028033;28;20533;-73
2022/01/08 05:23:46;;;;;;;22.52;9.88;;;;;;;-0.49;48.13;99769.91;5026460;28;20041;-73
2022/01/08 05:26:13;;;;;;;21.73;9.48;;;;;;;-0.52;48.16;99775.19;5026238;28;20041;-72
2022/01/08 05:28:41;;;;;;;21.17;10.95;;;;;;;-0.54;48.19;99777.84;5029508;28;20088;-73
2022/01/08 05:31:09;;;;;;;18.85;9.43;;;;;;;-0.54;48.32;99766.59;5027827;28;20057;-72
2022/01/08 05:33:36;;;;;;;25.20;11.45;;;;;;;-0.59;48.09;99759.00;5028433;28;20128;-73
2022/01/08 05:36:03;;;;;;;27.83;11.73;;;;;;;-0.60;48.27;99778.03;5028756;28;20046;-72
2022/01/08 05:38:31;;;;;;;25.88;11.63;;;;;;;-0.63;48.04;99771.22;5027995;28;20042;-72
2022/01/08 05:40:57;;;;;;;17.95;7.57;;;;;;;-0.62;48.19;99761.69;5030018;28;20444;-73
2022/01/08 05:43:24;;;;;;;23.48;10.43;;;;;;;-0.62;48.01;99759.09;5029931;28;20057;-72
2022/01/08 05:45:56;;;;;;;23.20;11.55;;;;;;;-0.63;48.16;99758.25;5028188;28;20140;-73
2022/01/08 05:48:23;;;;;;;25.38;10.75;;;;;;;-0.64;48.36;99764.34;5029704;28;20053;-73
2022/01/08 05:50:51;;;;;;;30.65;12.82;;;;;;;-0.66;48.17;99760.13;5029655;28;20049;-73
2022/01/08 05:53:19;;;;;;;22.75;11.23;;;;;;;-0.68;48.13;99761.91;5028405;28;20483;-72
2022/01/08 05:55:46;;;;;;;20.73;10.50;;;;;;;-0.70;48.45;99761.97;5028912;28;20045;-73
2022/01/08 05:58:14;;;;;;;18.85;9.70;;;;;;;-0.70;48.42;99761.09;5027959;28;20201;-72
2022/01/08 06:00:41;;;;;;;23.52;11.73;;;;;;;-0.72;48.29;99763.78;5010255;28;20132;-72
2022/01/08 06:03:10;;;;;;;16.88;8.43;;;;;;;-0.71;48.28;99765.44;5028346;28;20041;-72
2022/01/08 06:05:37;;;;;;;23.65;10.63;;;;;;;-0.73;48.26;99758.63;5026816;28;20171;-74
2022/01/08 06:08:04;;;;;;;23.83;11.15;;;;;;;-0.74;48.59;99765.53;5026936;28;20051;-71
2022/01/08 06:10:31;;;;;;;23.95;10.45;;;;;;;-0.76;48.87;99762.16;5029617;28;20056;-72
2022/01/08 06:12:58;;;;;;;18.35;8.82;;;;;;;-0.75;48.70;99757.84;5026383;28;20471;-74
2022/01/08 06:15:25;;;;;;;22.88;10.32;;;;;;;-0.78;48.26;99764.78;5028604;28;20175;-73
2022/01/08 06:17:52;;;;;;;22.77;11.35;;;;;;;-0.78;48.50;99758.78;5025888;28;20060;-73
2022/01/08 06:20:21;;;;;;;20.52;12.45;;;;;;;-0.80;48.63;99766.59;5026225;28;20071;-72
2022/01/08 06:22:48;;;;;;;18.42;9.50;;;;;;;-0.80;48.42;99758.81;5026876;28;20453;-73
2022/01/08 06:25:15;;;;;;;33.70;14.13;;;;;;;-0.82;48.37;99752.84;5026673;28;20905;-74
2022/01/08 06:27:42;;;;;;;21.33;10.65;;;;;;;-0.81;48.39;99753.69;5025423;28;20103;-71
2022/01/08 06:30:10;;;;;;;24.92;11.57;;;;;;;-0.81;48.41;99756.28;5026450;28;20052;-73
2022/01/08 06:32:37;;;;;;;23.65;9.60;;;;;;;-0.80;48.33;99750.19;5026401;28;20049;-73
2022/01/08 06:35:05;;;;;;;21.42;11.23;;;;;;;-0.79;48.63;99749.31;5025895;28;20049;-72
2022/01/08 06:37:33;;;;;;;29.15;13.27;;;;;;;-0.80;48.59;99752.78;5027454;28;20113;-73
2022/01/08 06:40:00;;;;;;;26.10;11.48;;;;;;;-0.80;48.66;99763.16;5025495;28;20064;-72
2022/01/08 06:42:27;;;;;;;25.08;10.05;;;;;;;-0.79;48.51;99760.53;5026681;28;20048;-71
2022/01/08 06:44:54;;;;;;;24.73;11.48;;;;;;;-0.76;48.39;99756.97;5026427;28;20124;-72
2022/01/08 06:47:21;;;;;;;21.42;10.05;;;;;;;-0.74;48.55;99752.56;5026635;28;20631;-73
2022/01/08 06:49:48;;;;;;;20.45;9.90;;;;;;;-0.74;48.45;99743.97;5026708;28;20389;-73
2022/01/08 06:52:15;;;;;;;24.27;12.75;;;;;;;-0.75;48.79;99743.13;5035449;28;20471;-74
2022/01/08 06:54:43;;;;;;;24.35;11.18;;;;;;;-0.70;48.56;99745.53;5039195;28;20124;-73
2022/01/08 06:57:10;;;;;;;22.70;11.70;;;;;;;-0.68;48.54;99743.75;5037083;28;20237;-72
2022/01/08 06:59:37;;;;;;;29.55;13.43;;;;;;;-0.67;48.23;99748.88;5038241;28;20081;-74
2022/01/08 07:02:04;;;;;;;27.13;11.82;;;;;;;-0.66;48.31;99748.00;5036303;28;20140;-73
2022/01/08 07:04:31;;;;;;;25.88;12.48;;;;;;;-0.64;48.31;99748.78;5030873;28;20055;-72
2022/01/08 07:06:58;;;;;;;23.42;12.98;;;;;;;-0.64;48.50;99759.16;5036720;28;20056;-74
2022/01/08 07:09:26;;;;;;;29.35;11.77;;;;;;;-0.60;48.45;99752.94;5034088;28;20045;-73
2022/01/08 07:11:54;;;;;;;24.98;11.77;;;;;;;-0.59;48.47;99754.66;5033322;28;20045;-73
2022/01/08 07:14:21;;;;;;;16.80;7.65;;;;;;;-0.53;48.27;99747.56;5037679;28;20077;-74
2022/01/08 07:16:49;;;;;;;21.83;12.43;;;;;;;-0.53;48.40;99742.38;5035064;28;20049;-74
2022/01/08 07:19:19;;;;;;;21.98;10.18;;;;;;;-0.51;48.12;99740.56;5035139;28;20099;-74
2022/01/08 07:21:46;;;;;;;24.50;10.00;;;;;;;-0.48;48.55;99735.28;5039949;28;20042;-74
2022/01/08 07:24:13;;;;;;;25.92;10.93;;;;;;;-0.45;48.14;99740.34;5032615;28;20109;-74
2022/01/08 07:26:40;;;;;;;23.98;9.43;;;;;;;-0.45;48.41;99740.34;5027499;28;20051;-73
2022/01/08 07:29:09;;;;;;;25.75;10.90;;;;;;;-0.41;48.08;99736.75;5033328;28;20081;-70
2022/01/08 07:31:36;;;;;;;35.22;14.20;;;;;;;-0.36;48.18;99740.03;5030965;28;20729;-74
2022/01/08 07:34:03;;;;;;;16.75;10.48;;;;;;;-0.30;48.26;99734.63;5028750;28;20766;-73
2022/01/08 07:36:30;;;;;;;28.60;12.00;;;;;;;-0.26;47.88;99731.00;5031569;28;20247;-73
2022/01/08 07:38:57;;;;;;;18.30;9.48;;;;;;;-0.16;47.83;99730.66;5033513;28;20125;-74
2022/01/08 07:41:24;;;;;;;28.85;15.75;;;;;;;-0.14;47.73;99736.66;5033762;28;20068;-73
2022/01/08 07:43:51;;;;;;;23.90;11.45;;;;;;;-0.07;47.66;99732.94;5039382;28;20199;-75
2022/01/08 07:46:21;;;;;;;24.05;10.82;;;;;;;-0.03;47.79;99737.94;5033278;28;20498;-74
2022/01/08 07:48:48;;;;;;;19.48;10.93;;;;;;;-0.02;47.75;99737.06;5033981;28;20049;-71
2022/01/08 07:51:15;;;;;;;27.30;12.25;;;;;;;-0.02;48.03;99743.97;5040312;28;20476;-73
2022/01/08 07:53:42;;;;;;;19.55;8.73;;;;;;;0.01;47.81;99730.88;5035201;28;20073;-75
2022/01/08 07:56:10;;;;;;;21.90;11.73;;;;;;;0.02;47.74;99724.81;5037353;28;20109;-71
2022/01/08 07:58:37;;;;;;;23.20;12.30;;;;;;;0.05;47.57;99724.66;5038362;28;20088;-72
2022/01/08 08:01:04;;;;;;;27.95;10.75;;;;;;;0.12;47.65;99722.69;5025436;28;20052;-73
2022/01/08 08:03:33;;;;;;;32.63;13.25;;;;;;;0.17;48.00;99725.97;5026676;28;20116;-74
2022/01/08 08:06:01;;;;;;;27.40;13.45;;;;;;;0.24;47.52;99735.22;5026123;28;20132;-72
2022/01/08 08:08:30;;;;;;;22.10;10.32;;;;;;;0.38;47.55;99740.72;5028253;28;20057;-71
2022/01/08 08:10:57;;;;;;;22.48;10.73;;;;;;;0.50;47.28;99739.38;5025692;28;20045;-72
2022/01/08 08:13:25;;;;;;;30.63;15.90;;;;;;;0.65;47.26;99732.75;5025380;28;20374;-71
2022/01/08 08:15:59;;;;;;;28.67;12.85;;;;;;;0.86;47.05;99728.41;5023437;28;20050;-71
2022/01/08 08:18:26;;;;;;;19.50;9.63;;;;;;;1.06;46.96;99721.56;5024348;28;20129;-73
2022/01/08 08:20:56;;;;;;;25.05;11.98;;;;;;;1.14;46.59;99725.53;5026597;28;20120;-75
2022/01/08 08:23:24;;;;;;;21.60;11.18;;;;;;;1.25;46.62;99729.44;5036809;28;20141;-72
2022/01/08 08:25:52;;;;;;;24.67;13.90;;;;;;;1.33;46.63;99730.81;5026215;28;20045;-83
2022/01/08 08:28:22;;;;;;;27.85;14.30;;;;;;;1.48;46.44;99731.91;4996514;28;20152;-72
2022/01/08 08:30:50;;;;;;;23.25;12.73;;;;;;;1.70;46.18;99736.16;5026727;28;20441;-73
2022/01/08 08:33:18;;;;;;;22.90;12.70;;;;;;;1.90;46.00;99730.06;5028885;28;20042;-76
2022/01/08 08:35:45;;;;;;;24.27;12.77;;;;;;;1.98;45.90;99732.31;5032666;28;20060;-75
2022/01/08 08:38:14;;;;;;;25.17;12.55;;;;;;;2.08;45.73;99731.00;5029980;28;20119;-74
2022/01/08 08:40:41;;;;;;;26.33;11.23;;;;;;;2.14;45.67;99732.47;5025712;28;20085;-73
2022/01/08 08:43:08;;;;;;;22.13;11.07;;;;;;;2.18;45.77;99729.66;5026215;28;20145;-73
2022/01/08 08:45:35;;;;;;;28.20;12.23;;;;;;;2.22;45.78;99732.97;5026714;28;20593;-72
2022/01/08 08:48:02;;;;;;;23.98;11.82;;;;;;;2.22;45.82;99732.97;5027658;28;20052;-73
2022/01/08 08:50:30;;;;;;;21.38;10.80;;;;;;;2.33;45.70;99735.06;5027856;28;20136;-76
2022/01/08 08:52:57;;;;;;;25.50;13.48;;;;;;;2.42;45.57;99738.09;5030400;28;20064;-75
2022/01/08 08:55:26;;;;;;;27.30;12.00;;;;;;;2.55;45.31;99737.50;5027080;28;20053;-74
2022/01/08 08:57:53;;;;;;;24.90;12.65;;;;;;;2.59;45.04;99741.66;5026348;28;20082;-73
2022/01/08 09:00:20;;;;;;;25.77;11.68;;;;;;;2.59;45.33;99726.88;5027523;28;20532;-74
2022/01/08 09:02:47;;;;;;;26.50;11.65;;;;;;;2.69;45.17;99724.66;5027120;28;20069;-71
2022/01/08 09:05:14;;;;;;;24.55;13.85;;;;;;;2.71;45.01;99728.03;5029561;28;20398;-73
2022/01/08 09:07:42;;;;;;;25.23;12.55;;;;;;;2.66;45.23;99732.63;5029132;28;20077;-77
2022/01/08 09:10:11;;;;;;;27.73;13.40;;;;;;;2.69;45.14;99732.47;5030722;28;20136;-76
2022/01/08 09:12:41;;;;;;;31.83;13.85;;;;;;;2.78;45.02;99747.66;5030128;28;20456;-77
2022/01/08 09:15:21;;;;;;;33.55;14.10;;;;;;;2.80;45.01;99738.00;5031095;28;20103;-80
2022/01/08 09:17:48;;;;;;;27.27;12.93;;;;;;;2.89;45.05;99733.28;5036279;28;20045;-73
2022/01/08 09:20:17;;;;;;;30.50;14.93;;;;;;;2.83;45.06;99730.03;5024923;28;20061;-75
2022/01/08 09:22:48;;;;;;;19.98;12.25;;;;;;;2.84;45.31;99731.72;5050709;28;20103;-80
2022/01/08 09:25:15;;;;;;;26.40;12.55;;;;;;;2.85;45.29;99743.00;5032394;28;20044;-74
2022/01/08 09:27:47;;;;;;;26.20;14.93;;;;;;;2.85;45.26;99733.41;5013712;28;20107;-80
2022/01/08 09:30:15;;;;;;;29.30;15.13;;;;;;;2.84;45.42;99726.50;5050412;28;20106;-83
2022/01/08 09:32:45;;;;;;;30.48;15.60;;;;;;;2.86;45.47;99729.03;5048551;28;20132;-81
2022/01/08 09:35:12;;;;;;;30.77;14.68;;;;;;;2.96;45.37;99734.66;5021366;28;20053;-75
2022/01/08 09:37:40;;;;;;;24.15;12.43;;;;;;;3.00;45.27;99726.59;5029136;28;20190;-76
2022/01/08 09:40:09;;;;;;;30.13;14.05;;;;;;;2.98;45.14;99728.44;5007560;28;20108;-75
2022/01/08 09:42:36;;;;;;;27.08;15.48;;;;;;;3.00;45.22;99733.59;5023490;28;20088;-73
2022/01/08 09:45:05;;;;;;;27.27;14.48;;;;;;;3.01;45.32;99723.06;5025787;28;20037;-72
2022/01/08 09:47:32;;;;;;;24.95;13.27;;;;;;;2.99;45.32;99718.84;5028272;28;20101;-73
2022/01/08 09:50:02;;;;;;;27.58;13.07;;;;;;;3.04;45.44;99719.47;5030709;28;20586;-76
2022/01/08 09:52:34;;;;;;;22.58;12.82;;;;;;;3.04;45.44;99725.53;5026179;28;20601;-74
2022/01/08 09:55:01;;;;;;;26.83;13.35;;;;;;;3.00;45.50;99715.31;5025283;28;20056;-76
2022/01/08 09:57:29;;;;;;;25.75;13.02;;;;;;;3.00;45.65;99725.75;5025705;28;20446;-76
2022/01/08 09:59:57;;;;;;;28.40;13.77;;;;;;;3.02;45.65;99719.53;5024899;28;20117;-75
2022/01/08 10:02:26;;;;;;;20.95;9.77;;;;;;;3.03;45.52;99716.00;5025929;28;20052;-75
2022/01/08 10:04:54;;;;;;;29.50;14.52;;;;;;;2.94;46.07;99706.03;5025037;28;20129;-75
2022/01/08 10:07:26;;;;;;;29.48;14.85;;;;;;;3.01;45.86;99698.75;5035890;28;20064;-77
2022/01/08 10:10:10;;;;;;;26.85;13.13;;;;;;;3.04;45.90;99682.94;5006567;28;20054;-76
2022/01/08 10:12:49;;;;;;;24.55;12.77;;;;;;;3.04;45.93;99675.97;5023515;28;20056;-74
2022/01/08 10:18:32;;;;;;;25.52;14.82;;;;;;;3.21;45.84;99671.66;5027139;28;20072;-78
2022/01/08 10:21:20;;;;;;;24.80;13.85;;;;;;;3.37;45.69;99671.72;5032597;28;20045;-80
2022/01/08 10:24:12;;;;;;;35.58;20.60;;;;;;;3.52;45.57;99662.22;5007177;28;20041;-74
2022/01/08 10:26:42;;;;;;;29.88;14.30;;;;;;;3.67;45.46;99653.56;5022831;28;20052;-76
2022/01/08 10:29:13;;;;;;;26.45;14.73;;;;;;;3.74;45.25;99654.06;5031429;28;20065;-76
2022/01/08 10:31:41;;;;;;;34.78;15.77;;;;;;;3.89;45.12;99657.63;5021609;28;20072;-74
2022/01/08 10:34:11;;;;;;;34.08;16.17;;;;;;;4.08;45.08;99660.09;5025603;28;20045;-72
2022/01/08 10:36:41;;;;;;;27.27;14.60;;;;;;;4.25;44.70;99659.13;5027207;28;20047;-75
2022/01/08 10:39:10;;;;;;;30.83;14.68;;;;;;;4.36;44.81;99662.00;5041767;28;20055;-73
2022/01/08 10:41:42;;;;;;;28.48;13.10;;;;;;;4.24;45.14;99660.91;5040579;28;20133;-73
2022/01/08 10:44:20;;;;;;;28.23;13.65;;;;;;;4.18;45.15;99664.72;5028156;28;20053;-76
2022/01/08 10:46:58;;;;;;;28.27;14.40;;;;;;;4.20;45.32;99673.31;5034477;28;20053;-74
2022/01/08 10:49:33;;;;;;;34.60;16.90;;;;;;;4.27;45.38;99662.50;4969860;28;20053;-76
2022/01/08 10:52:01;;;;;;;27.10;14.90;;;;;;;4.31;45.30;99658.81;5020931;28;20088;-75
2022/01/08 10:54:29;;;;;;;34.67;15.35;;;;;;;4.32;45.42;99661.34;5029776;28;20083;-75
2022/01/08 10:57:00;;;;;;;27.83;13.77;;;;;;;4.31;45.43;99654.41;5036024;28;20045;-72
2022/01/08 10:59:28;;;;;;;27.35;12.45;;;;;;;4.30;45.53;99663.16;5038249;28;20045;-74
2022/01/08 11:02:00;;;;;;;32.03;14.60;;;;;;;4.25;45.74;99662.63;5035007;28;20125;-68
2022/01/08 11:04:42;;;;;;;47.33;23.45;;;;;;;4.24;45.89;99657.47;5036007;28;20077;-72
2022/01/08 11:07:11;;;;;;;40.30;19.77;;;;;;;4.15;45.99;99664.88;5046047;28;20037;-72
2022/01/08 11:09:39;;;;;;;36.97;17.70;;;;;;;4.10;46.19;99660.84;5054614;28;20507;-72
2022/01/08 11:12:08;;;;;;;30.05;17.85;;;;;;;4.01;46.33;99657.78;5043385;28;20127;-72
2022/01/08 11:17:38;;;;;;;28.40;14.75;;;;;;;4.06;46.31;99659.31;5026543;28;20061;-72
2022/01/08 11:20:10;;;;;;;31.58;15.45;;;;;;;4.01;46.51;99647.34;5026066;28;20558;-73
2022/01/08 11:22:40;;;;;;;29.92;15.55;;;;;;;3.98;46.62;99647.53;5025171;28;20068;-73
2022/01/08 11:25:11;;;;;;;27.42;15.68;;;;;;;3.96;46.72;99644.16;5024164;28;20046;-73
2022/01/08 11:28:01;;;;;;;32.42;17.25;;;;;;;4.02;46.78;99642.97;5025645;28;20045;-74
2022/01/08 11:30:30;;;;;;;29.63;15.05;;;;;;;4.07;46.67;99640.09;5045116;28;20126;-74
2022/01/08 11:33:04;;;;;;;33.88;15.70;;;;;;;4.09;46.69;99635.63;5045337;28;20045;-75
2022/01/08 11:35:35;;;;;;;31.15;16.45;;;;;;;4.11;46.78;99641.63;5046887;28;20076;-77
2022/01/08 11:38:06;;;;;;;37.03;17.58;;;;;;;4.03;47.02;99642.03;5040351;28;20612;-76
2022/01/08 11:40:41;;;;;;;36.75;17.95;;;;;;;4.06;46.86;99648.88;5003680;28;20041;-79
2022/01/08 11:43:10;;;;;;;36.30;17.48;;;;;;;4.07;47.04;99647.94;5049645;28;20079;-78
2022/01/08 11:45:47;;;;;;;31.85;18.65;;;;;;;4.07;47.23;99656.63;5048623;28;20627;-74
2022/01/08 11:48:18;;;;;;;32.97;16.40;;;;;;;4.13;47.12;99642.38;5049236;28;20063;-76
2022/01/08 11:50:54;;;;;;;33.80;17.60;;;;;;;4.15;47.15;99638.75;4975146;28;20136;-73